createdAt,value
2022-12-23T00:00:42.782Z,45.64
2022-12-23T00:01:42.913Z,33.67
2022-12-23T00:02:43.008Z,43.66
2022-12-23T00:03:42.920Z,46.31
2022-12-23T00:04:42.793Z,44.71
2022-12-23T00:05:42.776Z,44.59
2022-12-23T00:06:42.753Z,47.65
2022-12-23T00:07:42.767Z,43.96
2022-12-23T00:08:42.780Z,45.17
2022-12-23T00:09:42.768Z,47.37
2022-12-23T00:10:42.754Z,45.04
2022-12-23T00:11:42.733Z,42.35
2022-12-23T00:12:42.728Z,46.10
2022-12-23T00:13:42.789Z,44.28
2022-12-23T00:14:42.697Z,43.67
2022-12-23T00:15:42.762Z,43.43
2022-12-23T00:16:42.841Z,42.39
2022-12-23T00:17:42.728Z,43.14
2022-12-23T00:18:42.669Z,43.78
2022-12-23T00:19:42.667Z,45.22
2022-12-23T00:20:42.672Z,35.90
2022-12-23T00:21:42.670Z,45.50
2022-12-23T00:22:42.679Z,45.29
2022-12-23T00:23:42.648Z,43.47
2022-12-23T00:24:42.645Z,45.54
2022-12-23T00:25:42.637Z,45.48
2022-12-23T00:26:42.647Z,45.62
2022-12-23T00:27:42.658Z,44.76
2022-12-23T00:28:42.665Z,44.18
2022-12-23T00:29:42.675Z,44.25
2022-12-23T00:30:42.639Z,44.79
2022-12-23T00:31:42.720Z,43.55
2022-12-23T00:32:42.630Z,45.61
2022-12-23T00:33:43.575Z,44.69
2022-12-23T00:34:42.674Z,43.31
2022-12-23T00:35:43.633Z,41.31
2022-12-23T00:36:42.830Z,43.77
2022-12-23T00:37:42.709Z,42.88
2022-12-23T00:38:43.061Z,43.87
2022-12-23T00:39:42.551Z,42.64
2022-12-23T00:40:42.621Z,44.55
2022-12-23T00:41:42.683Z,45.10
2022-12-23T00:42:42.630Z,42.69
2022-12-23T00:43:42.584Z,42.88
2022-12-23T00:44:45.086Z,42.75
2022-12-23T00:45:42.711Z,42.76
2022-12-23T00:46:42.685Z,42.97
2022-12-23T00:47:42.696Z,44.66
2022-12-23T00:48:42.684Z,41.90
2022-12-23T00:49:43.581Z,43.73
2022-12-23T00:50:43.568Z,41.08
2022-12-23T00:51:42.662Z,41.12
2022-12-23T00:52:42.668Z,41.87
2022-12-23T00:53:42.706Z,41.30
2022-12-23T00:54:43.575Z,42.32
2022-12-23T00:55:42.646Z,44.66
2022-12-23T00:56:42.692Z,45.15
2022-12-23T00:57:43.649Z,40.86
2022-12-23T00:58:45.161Z,45.22
2022-12-23T00:59:42.580Z,42.96
2022-12-23T01:00:42.605Z,43.42
2022-12-23T01:01:42.619Z,42.20
2022-12-23T01:02:42.686Z,39.60
2022-12-23T01:03:43.073Z,44.09
2022-12-23T01:04:42.634Z,43.08
2022-12-23T01:05:43.086Z,44.76
2022-12-23T01:06:42.666Z,43.75
2022-12-23T01:07:42.603Z,42.28
2022-12-23T01:08:42.673Z,43.08
2022-12-23T01:09:42.576Z,42.16
2022-12-23T01:10:42.507Z,42.29
2022-12-23T01:11:43.084Z,42.18
2022-12-23T01:12:42.492Z,42.33
2022-12-23T01:13:42.630Z,42.22
2022-12-23T01:14:42.495Z,44.18
2022-12-23T01:15:42.647Z,41.50
2022-12-23T01:16:42.536Z,39.44
2022-12-23T01:17:42.704Z,41.76
2022-12-23T01:18:42.518Z,43.08
2022-12-23T01:19:42.660Z,42.08
2022-12-23T01:20:42.521Z,42.30
2022-12-23T01:21:42.476Z,41.75
2022-12-23T01:22:42.477Z,41.26
2022-12-23T01:23:42.594Z,41.81
2022-12-23T01:24:42.561Z,40.38
2022-12-23T01:25:42.536Z,39.51
2022-12-23T01:26:42.454Z,42.37
2022-12-23T01:27:42.640Z,42.09
2022-12-23T01:28:43.085Z,40.21
2022-12-23T01:29:42.429Z,41.13
2022-12-23T01:30:42.648Z,39.71
2022-12-23T01:31:42.502Z,39.67
2022-12-23T01:32:42.443Z,42.17
2022-12-23T01:33:43.102Z,38.28
2022-12-23T01:34:42.429Z,42.66
2022-12-23T01:35:42.418Z,42.73
2022-12-23T01:36:42.420Z,42.74
2022-12-23T01:37:42.428Z,42.74
2022-12-23T01:38:42.409Z,40.31
2022-12-23T01:39:42.391Z,39.71
2022-12-23T01:40:42.392Z,43.08
2022-12-23T01:41:42.396Z,41.61
2022-12-23T01:42:42.387Z,43.04
2022-12-23T01:43:42.385Z,42.53
2022-12-23T01:44:42.383Z,42.55
2022-12-23T01:45:42.482Z,39.61
2022-12-23T01:46:42.359Z,41.34
2022-12-23T01:47:42.366Z,40.95
2022-12-23T01:48:42.368Z,39.84
2022-12-23T01:49:42.348Z,41.93
2022-12-23T01:50:42.378Z,39.27
2022-12-23T01:51:42.333Z,39.99
2022-12-23T01:52:42.328Z,39.23
2022-12-23T01:53:42.332Z,39.46
2022-12-23T01:54:42.308Z,39.19
2022-12-23T01:55:42.341Z,41.31
2022-12-23T01:56:42.303Z,41.53
2022-12-23T01:57:42.319Z,40.00
2022-12-23T01:58:42.332Z,41.56
2022-12-23T01:59:42.277Z,41.90
2022-12-23T02:00:42.282Z,40.14
2022-12-23T02:01:42.374Z,40.95
2022-12-23T02:02:42.435Z,42.26
2022-12-23T02:03:42.364Z,40.49
2022-12-23T02:04:42.230Z,42.25
2022-12-23T02:05:42.211Z,38.99
2022-12-23T02:06:42.264Z,40.67
2022-12-23T02:07:42.217Z,40.19
2022-12-23T02:08:42.204Z,42.41
2022-12-23T02:09:42.189Z,42.53
2022-12-23T02:10:42.189Z,41.09
2022-12-23T02:11:42.188Z,42.50
2022-12-23T02:12:42.174Z,41.14
2022-12-23T02:13:42.190Z,42.22
2022-12-23T02:14:42.157Z,42.56
2022-12-23T02:15:42.159Z,41.08
2022-12-23T02:16:42.212Z,39.14
2022-12-23T02:17:42.138Z,42.53
2022-12-23T02:18:42.124Z,42.49
2022-12-23T02:19:42.115Z,42.59
2022-12-23T02:20:42.166Z,42.00
2022-12-23T02:21:42.155Z,39.51
2022-12-23T02:22:42.151Z,42.16
2022-12-23T02:23:42.088Z,42.03
2022-12-23T02:24:42.113Z,41.15
2022-12-23T02:25:42.083Z,40.64
2022-12-23T02:26:42.085Z,40.87
2022-12-23T02:27:42.045Z,38.08
2022-12-23T02:28:42.099Z,40.86
2022-12-23T02:29:42.046Z,41.44
2022-12-23T02:30:42.093Z,41.29
2022-12-23T02:31:42.020Z,40.34
2022-12-23T02:32:42.029Z,38.88
2022-12-23T02:33:42.034Z,39.38
2022-12-23T02:34:42.021Z,40.10
2022-12-23T02:35:41.999Z,39.78
2022-12-23T02:36:41.994Z,39.94
2022-12-23T02:37:41.997Z,38.87
2022-12-23T02:38:41.984Z,39.00
2022-12-23T02:39:41.980Z,39.12
2022-12-23T02:40:41.997Z,38.85
2022-12-23T02:41:42.033Z,37.69
2022-12-23T02:42:41.943Z,40.65
2022-12-23T02:43:41.938Z,39.74
2022-12-23T02:44:41.947Z,39.08
2022-12-23T02:45:41.925Z,39.07
2022-12-23T02:46:41.934Z,38.97
2022-12-23T02:47:41.913Z,38.62
2022-12-23T02:48:41.904Z,39.17
2022-12-23T02:49:41.901Z,37.74
2022-12-23T02:50:41.920Z,40.83
2022-12-23T02:51:41.883Z,39.25
2022-12-23T02:52:41.892Z,38.42
2022-12-23T02:53:41.935Z,39.82
2022-12-23T02:54:41.876Z,37.29
2022-12-23T02:55:41.872Z,41.13
2022-12-23T02:56:41.889Z,35.00
2022-12-23T02:57:41.847Z,39.61
2022-12-23T02:58:41.825Z,39.77
2022-12-23T02:59:41.830Z,39.98
2022-12-23T03:00:41.816Z,37.56
2022-12-23T03:01:41.964Z,39.96
2022-12-23T03:02:42.044Z,40.12
2022-12-23T03:03:41.874Z,40.53
2022-12-23T03:04:41.768Z,40.02
2022-12-23T03:05:41.772Z,40.11
2022-12-23T03:06:41.768Z,40.03
2022-12-23T03:07:41.772Z,40.12
2022-12-23T03:08:41.747Z,40.08
2022-12-23T03:09:41.750Z,39.97
2022-12-23T03:10:41.720Z,40.40
2022-12-23T03:11:41.709Z,41.47
2022-12-23T03:12:41.718Z,38.09
2022-12-23T03:13:42.636Z,38.46
2022-12-23T03:14:41.755Z,34.56
2022-12-23T03:15:41.700Z,35.75
2022-12-23T03:16:41.692Z,35.97
2022-12-23T03:17:41.660Z,34.93
2022-12-23T03:18:41.656Z,36.67
2022-12-23T03:19:41.652Z,33.76
2022-12-23T03:20:41.649Z,33.75
2022-12-23T03:21:41.631Z,34.75
2022-12-23T03:22:41.610Z,33.79
2022-12-23T03:23:41.602Z,34.57
2022-12-23T03:24:41.616Z,33.56
2022-12-23T03:25:41.583Z,30.67
2022-12-23T03:26:41.647Z,34.42
2022-12-23T03:27:41.616Z,32.13
2022-12-23T03:28:41.583Z,32.38
2022-12-23T03:29:41.571Z,32.41
2022-12-23T03:30:41.594Z,31.70
2022-12-23T03:31:41.623Z,32.71
2022-12-23T03:32:41.558Z,31.05
2022-12-23T03:33:41.531Z,29.62
2022-12-23T03:34:41.540Z,30.37
2022-12-23T03:35:41.515Z,30.82
2022-12-23T03:36:41.586Z,28.59
2022-12-23T03:37:41.516Z,28.01
2022-12-23T03:38:41.593Z,29.38
2022-12-23T03:39:41.544Z,28.43
2022-12-23T03:40:41.542Z,28.60
2022-12-23T03:41:41.500Z,28.60
2022-12-23T03:42:41.567Z,28.85
2022-12-23T03:43:48.393Z,28.96
2022-12-23T03:44:57.135Z,28.62
2022-12-23T03:45:41.842Z,28.67
2022-12-23T03:46:41.525Z,29.29
2022-12-23T03:47:41.498Z,29.48
2022-12-23T03:48:41.490Z,29.92
2022-12-23T03:49:41.431Z,31.33
2022-12-23T03:50:41.439Z,28.70
2022-12-23T03:51:41.436Z,28.60
2022-12-23T03:52:41.435Z,28.67
2022-12-23T03:53:41.415Z,28.73
2022-12-23T03:54:41.420Z,28.79
2022-12-23T03:55:41.450Z,29.14
2022-12-23T03:56:41.398Z,29.39
2022-12-23T03:58:41.447Z,31.86
2022-12-23T03:59:41.387Z,28.61
2022-12-23T04:00:41.370Z,26.59
2022-12-23T04:01:41.543Z,27.08
2022-12-23T04:02:41.557Z,27.41
2022-12-23T04:03:41.415Z,27.96
2022-12-23T04:04:41.377Z,27.30
2022-12-23T04:05:41.368Z,27.59
2022-12-23T04:06:41.322Z,28.20
2022-12-23T04:07:41.387Z,26.86
2022-12-23T04:08:41.305Z,30.15
2022-12-23T04:09:41.335Z,30.18
2022-12-23T04:10:41.308Z,29.73
2022-12-23T04:11:41.347Z,29.81
2022-12-23T04:12:41.294Z,26.96
2022-12-23T04:13:41.295Z,27.90
2022-12-23T04:14:41.275Z,29.83
2022-12-23T04:15:41.382Z,28.76
2022-12-23T04:16:41.276Z,28.97
2022-12-23T04:17:41.272Z,28.97
2022-12-23T04:18:41.269Z,28.86
2022-12-23T04:19:41.258Z,28.96
2022-12-23T04:20:41.302Z,28.95
2022-12-23T04:21:41.251Z,27.65
2022-12-23T04:22:41.297Z,28.94
2022-12-23T04:23:41.259Z,28.76
2022-12-23T04:24:41.237Z,28.96
2022-12-23T04:25:41.284Z,28.76
2022-12-23T04:26:41.253Z,28.11
2022-12-23T04:27:41.245Z,28.88
2022-12-23T04:28:41.238Z,28.44
2022-12-23T04:29:41.231Z,24.89
2022-12-23T04:30:41.229Z,29.17
2022-12-23T04:31:41.304Z,23.77
2022-12-23T04:32:41.297Z,26.85
2022-12-23T04:33:41.223Z,26.35
2022-12-23T04:34:41.224Z,27.48
2022-12-23T04:35:41.204Z,25.00
2022-12-23T04:36:41.265Z,28.03
2022-12-23T04:37:41.267Z,30.92
2022-12-23T04:38:41.194Z,28.43
2022-12-23T04:39:41.176Z,28.81
2022-12-23T04:40:41.220Z,26.92
2022-12-23T04:41:41.172Z,26.36
2022-12-23T04:42:41.173Z,27.31
2022-12-23T04:43:41.180Z,30.40
2022-12-23T04:45:41.201Z,27.22
2022-12-23T04:46:41.242Z,29.61
2022-12-23T04:47:41.221Z,26.54
2022-12-23T04:48:41.162Z,26.74
2022-12-23T04:49:41.162Z,26.93
2022-12-23T04:50:41.190Z,27.58
2022-12-23T04:51:41.147Z,28.44
2022-12-23T04:52:41.168Z,29.79
2022-12-23T04:53:41.162Z,30.95
2022-12-23T04:54:46.019Z,31.77
2022-12-23T04:56:41.125Z,32.07
2022-12-23T04:57:41.157Z,31.25
2022-12-23T04:58:41.109Z,32.56
2022-12-23T04:59:41.143Z,34.32
2022-12-23T05:00:41.159Z,31.84
2022-12-23T05:01:41.242Z,32.05
2022-12-23T05:03:41.104Z,28.72
2022-12-23T05:20:40.989Z,33.59
2022-12-23T05:33:40.965Z,34.40
2022-12-23T05:34:40.939Z,34.63
2022-12-23T05:36:40.975Z,35.49
2022-12-23T05:37:40.980Z,35.94
2022-12-23T05:38:40.916Z,35.30
2022-12-23T05:39:41.718Z,35.31
2022-12-23T05:40:40.923Z,35.26
2022-12-23T05:41:40.992Z,35.42
2022-12-23T05:42:40.937Z,35.36
2022-12-23T05:43:40.903Z,35.42
2022-12-23T05:44:40.889Z,36.62
2022-12-23T05:45:41.755Z,38.55
2022-12-23T05:46:40.988Z,38.01
2022-12-23T05:47:40.872Z,38.14
2022-12-23T05:48:40.905Z,35.33
2022-12-23T05:49:40.865Z,37.98
2022-12-23T05:50:40.862Z,36.72
2022-12-23T05:51:40.876Z,38.20
2022-12-23T05:52:40.840Z,38.26
2022-12-23T05:53:42.679Z,38.14
2022-12-23T05:54:40.916Z,37.39
2022-12-23T05:55:40.954Z,38.16
2022-12-23T05:56:41.179Z,38.10
2022-12-23T05:57:41.052Z,38.32
2022-12-23T05:58:40.836Z,38.09
2022-12-23T05:59:40.843Z,38.18
2022-12-23T06:00:40.815Z,38.57
2022-12-23T06:01:40.950Z,38.76
2022-12-23T06:02:41.077Z,38.21
2022-12-23T06:03:40.967Z,38.27
2022-12-23T06:04:40.816Z,38.51
2022-12-23T06:05:40.818Z,39.22
2022-12-23T06:06:40.859Z,34.97
2022-12-23T06:07:41.679Z,37.55
2022-12-23T06:08:40.800Z,39.68
2022-12-23T06:09:40.810Z,38.67
2022-12-23T06:10:40.791Z,38.74
2022-12-23T06:11:40.791Z,36.95
2022-12-23T06:12:40.770Z,38.91
2022-12-23T06:13:40.908Z,38.87
2022-12-23T06:14:40.773Z,38.98
2022-12-23T06:15:40.861Z,39.23
2022-12-23T06:16:40.809Z,36.85
2022-12-23T06:17:42.679Z,40.53
2022-12-23T06:18:40.744Z,39.94
2022-12-23T06:19:41.797Z,40.01
2022-12-23T06:20:40.793Z,39.98
2022-12-23T06:21:40.760Z,39.38
2022-12-23T06:22:40.728Z,36.99
2022-12-23T06:23:40.765Z,38.78
2022-12-23T06:24:40.728Z,38.06
2022-12-23T06:25:40.748Z,38.23
2022-12-23T06:26:40.712Z,38.44
2022-12-23T06:27:40.730Z,36.81
2022-12-23T06:28:40.712Z,36.75
2022-12-23T06:29:41.729Z,38.68
2022-12-23T06:30:40.817Z,37.40
2022-12-23T06:31:40.775Z,37.35
2022-12-23T06:32:40.711Z,38.72
2022-12-23T06:33:40.692Z,39.01
2022-12-23T06:34:40.732Z,39.51
2022-12-23T06:35:40.717Z,39.46
2022-12-23T06:36:41.224Z,38.79
2022-12-23T06:37:41.748Z,25.73
2022-12-23T06:38:40.687Z,25.06
2022-12-23T06:39:40.707Z,24.39
2022-12-23T06:40:40.728Z,8.21
2022-12-23T06:41:40.731Z,0.00
2022-12-23T06:42:40.737Z,0.00
2022-12-23T06:43:40.701Z,25.00
2022-12-23T06:44:40.715Z,23.66
2022-12-23T06:45:40.838Z,25.95
2022-12-23T06:46:40.749Z,20.50
2022-12-23T06:47:40.764Z,12.09
2022-12-23T06:48:40.803Z,2.73
2022-12-23T06:49:40.835Z,0.00
2022-12-23T06:50:40.829Z,0.00
2022-12-23T06:51:40.837Z,2.22
2022-12-23T06:52:40.893Z,2.50
2022-12-23T06:53:40.893Z,0.00
2022-12-23T06:54:40.963Z,0.00
2022-12-23T06:55:40.989Z,0.00
2022-12-23T06:56:40.964Z,0.00
2022-12-23T06:57:41.216Z,0.00
2022-12-23T06:58:41.045Z,0.00
2022-12-23T06:59:41.024Z,0.00
2022-12-23T07:00:41.053Z,0.00
2022-12-23T07:01:41.240Z,25.00
2022-12-23T07:02:41.227Z,25.92
2022-12-23T07:03:41.261Z,27.93
2022-12-23T07:04:41.189Z,26.03
2022-12-23T07:05:41.244Z,26.75
2022-12-23T07:06:41.255Z,27.81
2022-12-23T07:07:41.287Z,25.00
2022-12-23T07:08:41.315Z,25.00
2022-12-23T07:09:41.375Z,25.16
2022-12-23T07:10:41.378Z,25.21
2022-12-23T07:11:41.414Z,13.40
2022-12-23T07:12:45.989Z,22.21
2022-12-23T07:13:43.275Z,17.81
2022-12-23T07:14:41.642Z,17.63
2022-12-23T07:15:41.578Z,21.01
2022-12-23T07:16:41.702Z,27.67
2022-12-23T07:17:41.664Z,33.22
2022-12-23T07:18:41.694Z,43.55
2022-12-23T07:19:41.772Z,48.23
2022-12-23T07:20:41.765Z,60.51
2022-12-23T07:21:41.801Z,66.89
2022-12-23T07:22:41.821Z,64.75
2022-12-23T07:23:41.889Z,65.08
2022-12-23T07:24:41.872Z,66.25
2022-12-23T07:25:41.908Z,69.35
2022-12-23T07:26:41.920Z,79.77
2022-12-23T07:27:41.961Z,91.58
2022-12-23T07:28:41.963Z,104.89
2022-12-23T07:29:41.995Z,103.57
2022-12-23T07:30:42.010Z,100.54
2022-12-23T07:31:42.077Z,106.71
2022-12-23T07:32:42.081Z,109.56
2022-12-23T07:33:42.094Z,107.62
2022-12-23T07:34:42.097Z,107.69
2022-12-23T07:35:42.115Z,110.61
2022-12-23T07:36:42.148Z,114.86
2022-12-23T07:37:42.150Z,116.76
2022-12-23T07:38:42.169Z,117.47
2022-12-23T07:39:42.236Z,120.73
2022-12-23T07:40:42.200Z,130.97
2022-12-23T07:41:42.221Z,132.03
2022-12-23T07:42:45.672Z,134.14
2022-12-23T07:43:42.296Z,134.43
2022-12-23T07:44:42.274Z,135.43
2022-12-23T07:45:42.318Z,136.90
2022-12-23T07:46:42.353Z,139.02
2022-12-23T07:47:42.353Z,146.76
2022-12-23T07:48:42.346Z,149.97
2022-12-23T07:49:42.382Z,152.28
2022-12-23T07:50:42.370Z,158.64
2022-12-23T07:51:42.396Z,159.65
2022-12-23T07:52:42.407Z,160.55
2022-12-23T07:53:42.452Z,161.48
2022-12-23T07:54:42.430Z,163.67
2022-12-23T07:55:42.430Z,162.51
2022-12-23T07:56:42.443Z,160.96
2022-12-23T07:57:42.492Z,162.17
2022-12-23T07:58:42.488Z,165.53
2022-12-23T07:59:42.486Z,165.43
2022-12-23T08:00:42.503Z,161.96
2022-12-23T08:01:42.657Z,163.65
2022-12-23T08:02:42.666Z,164.66
2022-12-23T08:03:42.613Z,161.68
2022-12-23T08:04:46.008Z,158.79
2022-12-23T08:05:42.545Z,159.05
2022-12-23T08:06:42.567Z,159.17
2022-12-23T08:07:42.576Z,159.51
2022-12-23T08:08:42.579Z,160.66
2022-12-23T08:09:42.584Z,160.81
2022-12-23T08:10:48.075Z,161.56
2022-12-23T08:12:42.605Z,159.74
2022-12-23T08:13:42.610Z,160.55
2022-12-23T08:14:42.631Z,163.28
2022-12-23T08:15:42.635Z,163.74
2022-12-23T08:16:44.227Z,164.74
2022-12-23T08:17:42.651Z,165.34
2022-12-23T08:18:42.671Z,162.77
2022-12-23T08:19:42.655Z,164.01
2022-12-23T08:20:42.692Z,169.06
2022-12-23T08:21:42.671Z,163.87
2022-12-23T08:22:42.681Z,164.82
2022-12-23T08:23:42.715Z,165.81
2022-12-23T08:24:42.718Z,164.41
2022-12-23T08:25:42.719Z,165.22
2022-12-23T08:26:42.725Z,166.47
2022-12-23T08:27:42.734Z,165.35
2022-12-23T08:28:42.764Z,167.03
2022-12-23T08:29:42.745Z,166.78
2022-12-23T08:30:42.769Z,165.83
2022-12-23T08:31:42.764Z,164.40
2022-12-23T08:32:42.765Z,168.77
2022-12-23T08:33:42.789Z,168.12
2022-12-23T08:34:42.804Z,168.30
2022-12-23T08:35:42.797Z,168.55
2022-12-23T08:36:42.797Z,168.28
2022-12-23T08:37:42.798Z,167.06
2022-12-23T08:38:42.807Z,168.97
2022-12-23T08:39:42.809Z,169.46
2022-12-23T08:40:42.816Z,169.13
2022-12-23T08:41:42.818Z,171.39
2022-12-23T08:42:42.844Z,171.51
2022-12-23T08:43:42.844Z,169.22
2022-12-23T08:44:42.872Z,170.69
2022-12-23T08:45:42.853Z,169.08
2022-12-23T08:46:42.910Z,173.22
2022-12-23T08:47:42.942Z,175.78
2022-12-23T08:48:48.869Z,175.85
2022-12-23T08:50:42.883Z,177.09
2022-12-23T08:51:43.737Z,179.96
2022-12-23T08:52:42.901Z,177.59
2022-12-23T08:53:42.906Z,176.03
2022-12-23T08:54:42.907Z,176.43
2022-12-23T08:55:42.899Z,178.31
2022-12-23T08:56:42.887Z,179.64
2022-12-23T08:57:42.897Z,185.21
2022-12-23T08:58:42.910Z,186.67
2022-12-23T08:59:42.887Z,191.89
2022-12-23T09:00:42.881Z,191.91
2022-12-23T09:01:42.938Z,190.78
2022-12-23T09:02:43.102Z,193.90
2022-12-23T09:03:42.945Z,196.07
2022-12-23T09:04:42.872Z,200.41
2022-12-23T09:05:42.861Z,196.32
2022-12-23T09:06:42.894Z,196.89
2022-12-23T09:07:42.861Z,201.48
2022-12-23T09:08:42.850Z,198.99
2022-12-23T09:09:42.884Z,202.39
2022-12-23T09:10:42.817Z,203.04
2022-12-23T09:11:42.818Z,203.71
2022-12-23T09:12:42.815Z,206.80
2022-12-23T09:13:42.792Z,207.92
2022-12-23T09:14:42.853Z,208.13
2022-12-23T09:15:42.828Z,208.00
2022-12-23T09:16:42.775Z,207.16
2022-12-23T09:17:42.774Z,209.69
2022-12-23T09:18:42.757Z,209.46
2022-12-23T09:19:45.904Z,207.84
2022-12-23T09:20:43.756Z,208.05
2022-12-23T09:21:42.739Z,208.02
2022-12-23T09:22:42.739Z,206.43
2022-12-23T09:23:42.723Z,205.27
2022-12-23T09:24:42.730Z,202.62
2022-12-23T09:25:42.795Z,207.87
2022-12-23T09:26:42.738Z,202.07
2022-12-23T09:27:42.702Z,200.50
2022-12-23T09:28:42.719Z,200.99
2022-12-23T09:29:42.710Z,198.22
2022-12-23T09:30:42.716Z,196.69
2022-12-23T09:31:42.787Z,195.31
2022-12-23T09:32:42.680Z,194.26
2022-12-23T09:33:42.655Z,192.10
2022-12-23T09:34:42.670Z,193.70
2022-12-23T09:35:42.654Z,189.25
2022-12-23T09:36:42.627Z,190.54
2022-12-23T09:37:42.632Z,186.75
2022-12-23T09:38:42.617Z,187.60
2022-12-23T09:39:42.674Z,188.43
2022-12-23T09:40:42.602Z,185.13
2022-12-23T09:41:42.596Z,185.42
2022-12-23T09:42:42.620Z,185.38
2022-12-23T09:43:42.581Z,185.36
2022-12-23T09:44:42.571Z,185.18
2022-12-23T09:45:42.561Z,183.44
2022-12-23T09:46:42.672Z,179.97
2022-12-23T09:47:42.540Z,180.47
2022-12-23T09:48:42.543Z,181.47
2022-12-23T09:49:42.536Z,179.43
2022-12-23T09:50:42.545Z,179.81
2022-12-23T09:51:42.534Z,179.97
2022-12-23T09:52:42.529Z,176.12
2022-12-23T09:53:42.527Z,180.00
2022-12-23T09:54:42.499Z,179.59
2022-12-23T09:55:42.554Z,177.48
2022-12-23T09:56:42.477Z,176.24
2022-12-23T09:57:42.468Z,174.80
2022-12-23T09:58:42.460Z,175.11
2022-12-23T09:59:42.450Z,175.05
2022-12-23T10:00:42.460Z,175.15
2022-12-23T10:01:44.976Z,172.98
2022-12-23T10:02:42.619Z,175.82
2022-12-23T10:03:42.750Z,175.20
2022-12-23T10:04:42.420Z,176.31
2022-12-23T10:05:43.286Z,174.10
2022-12-23T10:06:42.423Z,173.11
2022-12-23T10:07:42.383Z,173.57
2022-12-23T10:08:42.378Z,170.59
2022-12-23T10:09:42.377Z,170.52
2022-12-23T10:10:42.779Z,168.44
2022-12-23T10:11:42.336Z,167.77
2022-12-23T10:12:42.377Z,166.42
2022-12-23T10:13:42.354Z,167.84
2022-12-23T10:14:42.309Z,167.56
2022-12-23T10:15:42.346Z,168.13
2022-12-23T10:16:42.295Z,167.71
2022-12-23T10:17:42.273Z,166.98
2022-12-23T10:18:42.271Z,165.40
2022-12-23T10:19:42.240Z,163.31
2022-12-23T10:20:42.237Z,166.45
2022-12-23T10:21:46.931Z,164.20
2022-12-23T10:22:43.212Z,164.49
2022-12-23T10:23:42.180Z,164.73
2022-12-23T10:24:42.194Z,165.16
2022-12-23T10:25:42.174Z,163.48
2022-12-23T10:26:42.174Z,165.63
2022-12-23T10:27:42.138Z,165.08
2022-12-23T10:28:42.136Z,161.49
2022-12-23T10:29:42.125Z,162.13
2022-12-23T10:31:05.890Z,162.33
2022-12-23T10:31:43.258Z,162.47
2022-12-23T10:32:42.189Z,161.71
2022-12-23T10:33:42.101Z,162.82
2022-12-23T10:34:42.080Z,162.69
2022-12-23T10:35:42.082Z,160.09
2022-12-23T10:36:42.154Z,161.76
2022-12-23T10:37:42.166Z,158.46
2022-12-23T10:38:42.051Z,160.05
2022-12-23T10:39:42.035Z,158.72
2022-12-23T10:40:42.040Z,160.18
2022-12-23T10:41:42.035Z,158.21
2022-12-23T10:42:42.008Z,158.12
2022-12-23T10:43:41.996Z,159.48
2022-12-23T10:44:42.017Z,157.24
2022-12-23T10:45:41.985Z,157.45
2022-12-23T10:46:42.353Z,157.47
2022-12-23T10:47:41.995Z,157.28
2022-12-23T10:48:42.003Z,158.04
2022-12-23T10:49:41.978Z,157.56
2022-12-23T10:50:41.947Z,157.31
2022-12-23T10:51:41.970Z,156.88
2022-12-23T10:52:41.995Z,156.63
2022-12-23T10:53:41.942Z,157.95
2022-12-23T10:54:41.950Z,156.35
2022-12-23T10:55:41.926Z,157.31
2022-12-23T10:56:41.916Z,153.89
2022-12-23T10:57:41.892Z,154.96
2022-12-23T10:58:41.890Z,155.23
2022-12-23T10:59:41.884Z,155.02
2022-12-23T11:00:41.933Z,153.33
2022-12-23T11:01:42.024Z,153.27
2022-12-23T11:02:41.915Z,154.82
2022-12-23T11:03:41.877Z,154.51
2022-12-23T11:04:41.876Z,152.33
2022-12-23T11:05:41.834Z,152.66
2022-12-23T11:06:41.842Z,151.97
2022-12-23T11:07:45.044Z,153.80
2022-12-23T11:08:41.820Z,153.90
2022-12-23T11:09:41.800Z,153.21
2022-12-23T11:10:41.805Z,153.78
2022-12-23T11:11:41.777Z,151.04
2022-12-23T11:12:42.500Z,151.68
2022-12-23T11:13:41.771Z,154.09
2022-12-23T11:14:41.764Z,151.28
2022-12-23T11:15:41.826Z,149.32
2022-12-23T11:16:41.796Z,151.27
2022-12-23T11:17:41.713Z,150.92
2022-12-23T11:18:42.420Z,150.97
2022-12-23T11:19:41.711Z,149.02
2022-12-23T11:20:42.295Z,147.89
2022-12-23T11:21:41.685Z,150.73
2022-12-23T11:22:41.691Z,148.35
2022-12-23T11:23:41.673Z,149.56
2022-12-23T11:24:43.408Z,150.04
2022-12-23T11:25:42.293Z,149.37
2022-12-23T11:26:41.664Z,149.58
2022-12-23T11:27:41.648Z,146.47
2022-12-23T11:28:41.637Z,146.78
2022-12-23T11:29:41.642Z,149.05
2022-12-23T11:30:41.618Z,148.89
2022-12-23T11:31:41.646Z,147.08
2022-12-23T11:32:41.609Z,146.84
2022-12-23T11:33:41.566Z,145.64
2022-12-23T11:34:41.572Z,148.11
2022-12-23T11:35:41.626Z,145.78
2022-12-23T11:36:41.585Z,146.85
2022-12-23T11:37:41.571Z,146.74
2022-12-23T11:38:41.556Z,145.92
2022-12-23T11:39:41.532Z,145.99
2022-12-23T11:40:41.538Z,145.60
2022-12-23T11:41:41.508Z,147.23
2022-12-23T11:42:41.516Z,145.53
2022-12-23T11:43:41.503Z,144.59
2022-12-23T11:44:41.496Z,144.16
2022-12-23T11:45:41.534Z,143.65
2022-12-23T11:46:41.486Z,143.87
2022-12-23T11:47:41.664Z,143.90
2022-12-23T11:48:44.527Z,144.13
2022-12-23T11:49:41.455Z,143.83
2022-12-23T11:50:41.465Z,143.75
2022-12-23T11:51:41.471Z,144.08
2022-12-23T11:52:41.447Z,143.84
2022-12-23T11:53:41.444Z,143.46
2022-12-23T11:54:41.437Z,143.64
2022-12-23T11:55:41.427Z,142.69
2022-12-23T11:56:41.474Z,143.54
2022-12-23T11:57:41.450Z,141.30
2022-12-23T11:58:41.414Z,144.04
2022-12-23T11:59:41.426Z,143.76
2022-12-23T12:00:41.475Z,140.72
2022-12-23T12:01:41.420Z,143.71
2022-12-23T12:02:41.464Z,141.51
2022-12-23T12:03:41.406Z,141.19
2022-12-23T12:04:41.391Z,143.50
2022-12-23T12:05:42.324Z,143.69
2022-12-23T12:06:41.367Z,143.09
2022-12-23T12:07:41.345Z,142.77
2022-12-23T12:08:41.353Z,143.72
2022-12-23T12:09:41.365Z,142.22
2022-12-23T12:10:41.313Z,139.75
2022-12-23T12:11:41.325Z,140.79
2022-12-23T12:12:41.335Z,140.76
2022-12-23T12:13:41.471Z,140.56
2022-12-23T12:14:41.271Z,140.78
2022-12-23T12:15:41.293Z,140.84
2022-12-23T12:16:41.288Z,141.07
2022-12-23T12:17:41.255Z,140.48
2022-12-23T12:18:41.306Z,139.76
2022-12-23T12:19:41.215Z,140.06
2022-12-23T12:20:41.209Z,143.31
2022-12-23T12:21:41.195Z,139.60
2022-12-23T12:22:41.349Z,141.24
2022-12-23T12:23:41.166Z,142.14
2022-12-23T12:24:41.201Z,140.89
2022-12-23T12:25:41.167Z,139.55
2022-12-23T12:26:41.152Z,138.79
2022-12-23T12:27:41.822Z,140.69
2022-12-23T12:28:41.118Z,140.51
2022-12-23T12:29:41.119Z,140.62
2022-12-23T12:30:41.126Z,140.04
2022-12-23T12:31:41.086Z,139.70
2022-12-23T12:32:41.058Z,138.40
2022-12-23T12:33:41.084Z,141.32
2022-12-23T12:34:41.041Z,139.73
2022-12-23T12:35:41.029Z,139.11
2022-12-23T12:36:41.101Z,136.85
2022-12-23T12:37:41.007Z,137.56
2022-12-23T12:38:40.990Z,138.78
2022-12-23T12:39:40.983Z,139.00
2022-12-23T12:40:40.991Z,138.70
2022-12-23T12:41:40.964Z,136.78
2022-12-23T12:42:40.947Z,138.05
2022-12-23T12:43:40.923Z,136.02
2022-12-23T12:44:40.912Z,138.87
2022-12-23T12:45:40.920Z,137.31
2022-12-23T12:46:40.896Z,136.26
2022-12-23T12:48:02.164Z,135.01
2022-12-23T12:48:41.865Z,135.33
2022-12-23T12:49:40.843Z,135.45
2022-12-23T12:50:40.830Z,136.74
2022-12-23T12:51:40.844Z,137.78
2022-12-23T12:52:40.802Z,136.26
2022-12-23T12:53:40.809Z,136.53
2022-12-23T12:54:40.784Z,136.31
2022-12-23T12:55:40.764Z,139.16
2022-12-23T12:56:40.755Z,135.51
2022-12-23T12:57:40.756Z,135.73
2022-12-23T12:58:40.738Z,137.70
2022-12-23T12:59:40.722Z,135.49
2022-12-23T13:00:40.707Z,134.67
2022-12-23T13:01:40.821Z,136.63
2022-12-23T13:02:40.743Z,135.20
2022-12-23T13:03:40.674Z,135.37
2022-12-23T13:04:40.664Z,136.47
2022-12-23T13:05:40.649Z,136.63
2022-12-23T13:06:40.640Z,136.82
2022-12-23T13:07:40.632Z,137.06
2022-12-23T13:08:40.625Z,136.22
2022-12-23T13:09:40.595Z,136.12
2022-12-23T13:10:40.586Z,135.81
2022-12-23T13:11:40.589Z,133.00
2022-12-23T13:12:40.579Z,137.00
2022-12-23T13:13:40.590Z,137.13
2022-12-23T13:14:40.561Z,135.92
2022-12-23T13:15:40.555Z,134.38
2022-12-23T13:16:40.580Z,136.86